createdAt,value
2023-01-20T00:01:57.567Z,9.03
2023-01-20T00:04:29.314Z,8.67
2023-01-20T00:07:01.004Z,8.53
2023-01-20T00:09:37.228Z,8.70
2023-01-20T00:12:12.564Z,8.47
2023-01-20T00:14:42.865Z,8.40
2023-01-20T00:17:15.109Z,8.87
2023-01-20T00:19:47.521Z,8.10
2023-01-20T00:22:19.551Z,8.60
2023-01-20T00:24:57.168Z,8.60
2023-01-20T00:27:38.897Z,7.73
2023-01-20T00:30:12.324Z,8.57
2023-01-20T00:32:45.037Z,9.00
2023-01-20T00:35:17.194Z,7.87
2023-01-20T00:37:46.860Z,8.90
2023-01-20T00:40:21.515Z,9.03
2023-01-20T00:42:57.155Z,8.00
2023-01-20T00:45:27.837Z,8.70
2023-01-20T00:47:56.642Z,9.90
2023-01-20T00:50:26.339Z,9.77
2023-01-20T00:53:01.445Z,10.07
2023-01-20T00:55:34.837Z,8.43
2023-01-20T00:58:07.543Z,9.83
2023-01-20T01:00:37.332Z,8.90
2023-01-20T01:03:07.439Z,9.53
2023-01-20T01:05:38.074Z,10.10
2023-01-20T01:08:06.870Z,9.40
2023-01-20T01:10:38.779Z,10.30
2023-01-20T01:13:11.349Z,10.23
2023-01-20T01:15:48.859Z,10.00
2023-01-20T01:18:22.269Z,9.53
2023-01-20T01:20:52.254Z,9.77
2023-01-20T01:23:30.648Z,10.80
2023-01-20T02:04:27.883Z,12.53
2023-01-20T02:54:14.435Z,11.57
2023-01-20T03:21:13.020Z,9.63
2023-01-20T03:32:32.522Z,9.30
2023-01-20T04:41:40.817Z,9.67
2023-01-20T06:20:52.905Z,11.57
2023-01-20T06:23:49.697Z,11.03
2023-01-20T06:42:13.037Z,10.17
2023-01-20T06:44:50.411Z,10.73
2023-01-20T06:47:36.640Z,12.03
2023-01-20T06:50:10.059Z,10.67
2023-01-20T06:52:42.428Z,10.40
2023-01-20T06:55:14.089Z,11.27
2023-01-20T06:57:59.440Z,9.90
2023-01-20T07:00:27.699Z,10.73
2023-01-20T07:03:06.292Z,10.43
2023-01-20T07:05:34.949Z,10.50
2023-01-20T07:08:08.560Z,11.23
2023-01-20T07:10:46.921Z,10.43
2023-01-20T07:13:30.502Z,10.10
2023-01-20T07:15:59.184Z,9.93
2023-01-20T07:18:31.869Z,9.80
2023-01-20T07:21:06.264Z,10.47
2023-01-20T07:23:38.143Z,10.07
2023-01-20T07:26:10.459Z,10.53
2023-01-20T07:28:43.188Z,11.27
2023-01-20T07:31:18.844Z,10.53
2023-01-20T07:33:58.516Z,9.70
2023-01-20T07:36:29.083Z,9.90
2023-01-20T07:39:02.666Z,9.80
2023-01-20T07:41:35.455Z,10.00
2023-01-20T07:53:32.859Z,10.40
2023-01-20T07:56:02.217Z,10.63
2023-01-20T07:58:32.387Z,9.53
2023-01-20T08:01:08.410Z,9.53
2023-01-20T08:03:39.972Z,10.33
2023-01-20T08:06:10.632Z,10.00
2023-01-20T08:08:45.786Z,10.43
2023-01-20T08:11:21.593Z,10.23
2023-01-20T08:13:52.924Z,10.30
2023-01-20T08:16:29.441Z,9.70
2023-01-20T08:19:01.680Z,9.40
2023-01-20T08:21:36.444Z,10.30
2023-01-20T08:24:07.603Z,9.60
2023-01-20T08:26:37.332Z,9.47
2023-01-20T08:29:08.509Z,9.20
2023-01-20T08:31:38.567Z,10.20
2023-01-20T08:34:10.067Z,10.17
2023-01-20T08:36:46.655Z,9.20
2023-01-20T08:46:05.407Z,10.13
2023-01-20T08:48:36.470Z,10.17
2023-01-20T08:51:27.800Z,10.07
2023-01-20T08:53:56.627Z,9.43
2023-01-20T08:59:25.535Z,8.67
2023-01-20T09:02:00.704Z,8.93
2023-01-20T09:04:33.248Z,8.40
2023-01-20T09:07:04.904Z,8.17
2023-01-20T09:09:42.966Z,7.93
2023-01-20T09:12:17.872Z,8.83
2023-01-20T09:15:05.152Z,8.63
2023-01-20T09:17:44.697Z,8.17
2023-01-20T09:20:29.041Z,9.07
2023-01-20T09:23:07.079Z,8.40
2023-01-20T09:25:37.457Z,8.70
2023-01-20T09:28:09.218Z,8.17
2023-01-20T09:30:38.803Z,8.53
2023-01-20T09:33:13.726Z,7.87
2023-01-20T09:35:43.184Z,7.60
2023-01-20T09:38:32.664Z,8.80
2023-01-20T09:41:36.974Z,6.70
2023-01-20T09:44:20.781Z,6.70
2023-01-20T09:47:23.036Z,7.10
2023-01-20T09:50:29.674Z,6.73
2023-01-20T09:53:06.778Z,7.60
2023-01-20T09:55:51.621Z,6.10
2023-01-20T09:58:39.775Z,7.10
2023-01-20T10:01:20.576Z,8.73
2023-01-20T10:03:56.607Z,7.27
2023-01-20T10:06:32.898Z,7.90
2023-01-20T10:09:08.854Z,7.33
2023-01-20T10:11:44.764Z,7.73
2023-01-20T10:14:19.836Z,7.10
2023-01-20T10:17:00.370Z,6.97
2023-01-20T10:19:37.406Z,7.97
2023-01-20T10:22:19.144Z,8.93
2023-01-20T10:24:59.388Z,8.13
2023-01-20T10:27:34.890Z,7.10
2023-01-20T10:30:09.586Z,7.57
2023-01-20T10:32:40.411Z,7.00
2023-01-20T10:35:20.267Z,7.73
2023-01-20T10:37:59.148Z,7.80
2023-01-20T10:40:48.674Z,7.93
2023-01-20T10:43:20.008Z,8.07
2023-01-20T10:46:05.832Z,8.17
2023-01-20T10:48:51.616Z,7.33
2023-01-20T10:51:30.171Z,8.67
2023-01-20T10:54:13.701Z,8.10
2023-01-20T10:56:53.642Z,8.03
2023-01-20T10:59:28.743Z,7.33
2023-01-20T11:02:11.475Z,8.00
2023-01-20T11:04:42.887Z,8.27
2023-01-20T11:07:19.970Z,8.60
2023-01-20T11:09:57.087Z,8.07
2023-01-20T11:12:30.690Z,7.87
2023-01-20T11:15:02.035Z,7.73
2023-01-20T11:18:34.742Z,7.93
2023-01-20T11:21:06.640Z,7.20
2023-01-20T11:23:43.555Z,8.50
2023-01-20T11:26:31.426Z,8.83
2023-01-20T11:29:05.416Z,8.20
2023-01-20T11:31:49.415Z,8.50
2023-01-20T11:34:24.358Z,7.33
2023-01-20T11:37:18.101Z,8.10
2023-01-20T11:40:04.944Z,8.43
2023-01-20T11:42:50.297Z,9.00
2023-01-20T11:45:34.677Z,8.50
2023-01-20T11:48:06.793Z,8.67
2023-01-20T11:50:42.973Z,7.90
2023-01-20T11:53:22.727Z,8.20
2023-01-20T11:55:57.810Z,8.53
2023-01-20T11:58:36.826Z,7.90
2023-01-20T12:01:09.036Z,8.90
2023-01-20T12:04:38.374Z,8.90
2023-01-20T12:07:21.957Z,9.00
2023-01-20T12:09:54.939Z,9.93
2023-01-20T12:12:33.692Z,9.10
2023-01-20T12:15:21.689Z,8.30
2023-01-20T12:17:57.743Z,7.93
2023-01-20T12:20:53.599Z,9.60
2023-01-20T12:23:47.984Z,9.10
2023-01-20T12:26:23.314Z,7.97
2023-01-20T12:29:02.883Z,8.30
2023-01-20T12:31:38.375Z,8.50
2023-01-20T12:34:14.928Z,8.23
2023-01-20T12:37:09.245Z,9.20
2023-01-20T12:39:54.508Z,8.67
2023-01-20T12:42:50.449Z,8.90
2023-01-20T12:45:30.465Z,8.20
2023-01-20T12:48:22.797Z,8.47
2023-01-20T12:51:15.501Z,8.20
2023-01-20T12:54:19.247Z,7.50
2023-01-20T12:56:56.460Z,8.03
2023-01-20T12:59:35.672Z,7.30
2023-01-20T13:03:00.376Z,7.17
2023-01-20T13:06:04.151Z,7.30
2023-01-20T13:08:54.321Z,7.83
2023-01-20T13:11:36.912Z,7.97
2023-01-20T13:14:19.788Z,8.53
2023-01-20T13:16:52.439Z,8.00
2023-01-20T13:19:34.913Z,8.07
2023-01-20T13:22:13.736Z,7.20
2023-01-20T13:24:48.741Z,8.57
2023-01-20T13:27:23.933Z,7.37
2023-01-20T13:30:01.635Z,7.10
2023-01-20T13:32:36.837Z,8.40
2023-01-20T13:35:49.253Z,7.43
2023-01-20T13:38:28.477Z,7.80
2023-01-20T13:41:08.556Z,8.27
2023-01-20T13:43:53.335Z,8.00
2023-01-20T13:49:50.315Z,8.93
2023-01-20T14:06:10.698Z,8.70
2023-01-20T14:08:49.511Z,8.00
2023-01-20T14:11:21.845Z,8.47
2023-01-20T14:13:54.544Z,8.13
2023-01-20T14:16:33.636Z,8.53
2023-01-20T14:19:07.195Z,7.73
2023-01-20T14:21:45.976Z,8.53
2023-01-20T14:24:32.713Z,8.20
2023-01-20T14:27:11.948Z,8.17
2023-01-20T14:29:42.578Z,8.17
2023-01-20T14:32:29.073Z,8.80
2023-01-20T14:35:00.710Z,8.63
2023-01-20T14:37:44.835Z,7.83
2023-01-20T14:40:24.266Z,8.40
2023-01-20T14:43:02.017Z,8.80
2023-01-20T14:45:41.629Z,8.87
2023-01-20T14:48:19.136Z,8.77
2023-01-20T14:50:57.572Z,9.27
2023-01-20T14:53:27.345Z,8.80
2023-01-20T14:56:04.559Z,9.27
2023-01-20T14:58:34.241Z,8.67
2023-01-20T15:01:08.889Z,9.03
2023-01-20T15:03:38.128Z,8.27
2023-01-20T15:06:20.827Z,8.53
2023-01-20T15:09:06.935Z,8.43
2023-01-20T15:11:44.535Z,9.73
2023-01-20T15:14:14.712Z,8.13
2023-01-20T15:16:56.361Z,9.70
2023-01-20T15:19:50.658Z,8.40
2023-01-20T15:22:32.990Z,7.40
2023-01-20T15:25:14.545Z,10.13
2023-01-20T15:27:44.257Z,9.60
2023-01-20T15:30:24.436Z,10.80
2023-01-20T15:32:56.206Z,9.73
2023-01-20T15:35:29.277Z,8.67
2023-01-20T15:38:04.423Z,12.83
2023-01-20T15:40:36.584Z,11.30
2023-01-20T15:43:23.474Z,9.07
2023-01-20T15:46:19.378Z,9.43
2023-01-20T15:48:51.920Z,11.60
2023-01-20T15:58:26.135Z,9.80
2023-01-20T16:00:58.223Z,9.00
2023-01-20T16:03:38.513Z,8.70
2023-01-20T16:06:20.546Z,10.00
2023-01-20T16:08:51.679Z,10.63
2023-01-20T16:11:33.279Z,9.13
2023-01-20T16:14:14.804Z,9.93
2023-01-20T16:16:46.992Z,9.70
2023-01-20T16:19:21.267Z,10.23
2023-01-20T16:21:58.246Z,9.87
2023-01-20T16:24:27.983Z,9.70
2023-01-20T16:27:06.652Z,9.97
2023-01-20T16:29:39.518Z,9.83
2023-01-20T16:32:25.175Z,9.87
2023-01-20T16:35:05.277Z,9.03
2023-01-20T16:37:36.314Z,10.70
2023-01-20T16:40:08.305Z,9.10
2023-01-20T16:42:46.392Z,9.83
2023-01-20T16:45:30.205Z,9.80
2023-01-20T16:48:06.810Z,9.07
2023-01-20T16:50:44.078Z,9.17
2023-01-20T16:53:22.247Z,9.13
2023-01-20T16:55:56.648Z,9.03
2023-01-20T16:58:26.554Z,8.37
2023-01-20T17:01:06.989Z,9.63
2023-01-20T17:03:45.257Z,7.73
2023-01-20T17:06:23.827Z,8.93
2023-01-20T17:09:10.584Z,8.53
2023-01-20T17:11:52.353Z,8.77
2023-01-20T17:14:27.141Z,8.17
2023-01-20T17:17:05.206Z,9.17
2023-01-20T17:19:40.103Z,9.00
2023-01-20T17:22:15.175Z,8.97
2023-01-20T17:24:58.310Z,7.37
2023-01-20T17:27:29.693Z,8.33
2023-01-20T17:30:03.421Z,8.93
2023-01-20T17:32:38.976Z,7.57
2023-01-20T17:35:12.848Z,9.07
2023-01-20T17:38:04.987Z,7.70
2023-01-20T17:40:50.092Z,8.90
2023-01-20T17:43:47.879Z,8.70
2023-01-20T17:46:25.469Z,8.03
2023-01-20T17:48:58.461Z,8.90
2023-01-20T17:51:35.970Z,7.83
2023-01-20T17:54:20.974Z,8.10
2023-01-20T17:57:05.821Z,9.10
2023-01-20T17:59:43.815Z,8.53
2023-01-20T18:02:20.911Z,7.70
2023-01-20T18:05:18.231Z,7.20
2023-01-20T18:07:54.824Z,7.30
2023-01-20T18:10:38.782Z,8.60
2023-01-20T18:13:15.503Z,7.87
2023-01-20T18:15:50.682Z,6.83
2023-01-20T18:18:42.351Z,7.60
2023-01-20T18:21:32.464Z,6.97
2023-01-20T18:24:15.503Z,7.83
2023-01-20T18:26:50.722Z,6.80
2023-01-20T18:29:23.807Z,8.67
2023-01-20T18:32:15.091Z,8.37
2023-01-20T18:34:48.627Z,7.93
2023-01-20T18:37:31.005Z,9.40
2023-01-20T18:40:01.551Z,8.10
2023-01-20T18:42:34.120Z,8.50
2023-01-20T18:45:09.956Z,8.10
2023-01-20T18:47:42.529Z,7.60
2023-01-20T18:50:18.572Z,7.80
2023-01-20T18:52:52.344Z,8.50
2023-01-20T18:55:23.271Z,9.20
2023-01-20T19:00:55.009Z,10.60
2023-01-20T19:03:29.581Z,9.50
2023-01-20T19:06:12.031Z,9.40
2023-01-20T19:08:48.991Z,9.67
2023-01-20T19:11:29.498Z,9.50
2023-01-20T19:14:00.428Z,10.10
2023-01-20T19:16:45.629Z,9.10
2023-01-20T19:19:25.981Z,10.50
2023-01-20T19:22:01.112Z,9.40
2023-01-20T19:24:53.176Z,9.47
2023-01-20T19:27:29.041Z,11.20
2023-01-20T19:30:07.225Z,11.03
2023-01-20T19:32:45.213Z,10.60
2023-01-20T19:35:18.229Z,11.93
2023-01-20T19:37:57.211Z,11.97
2023-01-20T19:40:53.178Z,10.83
2023-01-20T19:43:36.699Z,11.27
2023-01-20T19:46:08.005Z,11.30
2023-01-20T19:48:43.028Z,12.30
2023-01-20T19:51:29.186Z,12.87
2023-01-20T19:54:11.167Z,12.03
2023-01-20T19:56:47.072Z,12.63
2023-01-20T19:59:23.318Z,13.50
2023-01-20T20:01:56.021Z,15.47
2023-01-20T20:04:50.446Z,15.30
2023-01-20T20:07:22.073Z,13.60
2023-01-20T20:10:02.914Z,13.87
2023-01-20T20:12:43.189Z,12.30
2023-01-20T20:15:27.414Z,14.93
2023-01-20T20:18:19.904Z,13.13
2023-01-20T20:21:00.517Z,14.30
2023-01-20T20:23:40.661Z,14.27
2023-01-20T20:26:17.604Z,14.00
2023-01-20T20:29:10.604Z,12.77
2023-01-20T20:31:44.761Z,13.20
2023-01-20T20:34:27.047Z,12.00
2023-01-20T20:37:04.253Z,13.53
2023-01-20T20:39:45.487Z,13.23
2023-01-20T20:42:21.269Z,13.10
2023-01-20T20:44:58.093Z,12.87
2023-01-20T20:47:39.688Z,11.20
2023-01-20T20:50:18.320Z,12.50
2023-01-20T20:53:08.650Z,12.97
2023-01-20T20:55:59.713Z,12.70
2023-01-20T20:58:30.654Z,10.23
2023-01-20T21:01:08.919Z,12.90
2023-01-20T21:03:42.361Z,12.30
2023-01-20T21:06:16.273Z,11.93
2023-01-20T21:08:48.874Z,12.97
2023-01-20T21:11:25.749Z,11.83
2023-01-20T21:14:01.734Z,13.07
2023-01-20T21:16:39.026Z,12.73
2023-01-20T21:19:14.024Z,13.40
2023-01-20T21:21:44.896Z,13.13
2023-01-20T21:24:15.571Z,13.70
2023-01-20T21:26:59.189Z,13.80
2023-01-20T21:29:39.203Z,13.90
2023-01-20T21:32:14.148Z,14.53
2023-01-20T21:34:46.701Z,12.37
2023-01-20T21:37:23.416Z,12.67
2023-01-20T21:39:56.278Z,13.70
2023-01-20T21:42:34.515Z,13.93
2023-01-20T21:45:13.191Z,14.40
2023-01-20T21:47:51.936Z,13.53
2023-01-20T21:50:42.891Z,13.80
2023-01-20T21:53:26.603Z,13.90
2023-01-20T21:55:58.891Z,14.00
2023-01-20T21:58:30.354Z,12.70
2023-01-20T22:01:07.479Z,14.30
2023-01-20T22:03:38.204Z,13.87
2023-01-20T22:06:15.669Z,13.57
2023-01-20T22:08:53.147Z,15.10
2023-01-20T22:11:25.004Z,13.27
2023-01-20T22:13:56.207Z,13.80
2023-01-20T22:16:35.248Z,13.60
2023-01-20T22:19:22.802Z,14.60
2023-01-20T22:21:52.588Z,14.57
2023-01-20T22:24:21.569Z,14.83
2023-01-20T22:26:51.867Z,15.30
2023-01-20T22:29:22.567Z,16.03
2023-01-20T22:32:07.549Z,16.60
2023-01-20T22:41:26.093Z,17.40
2023-01-20T22:43:56.312Z,16.70
2023-01-20T22:46:28.237Z,16.60
2023-01-20T22:51:59.279Z,18.37
2023-01-20T23:03:59.714Z,16.90
2023-01-20T23:31:16.919Z,16.17
2023-01-20T23:48:48.747Z,12.83
